createdAt,value
2023-01-29T00:00:56.772Z,99
2023-01-29T00:10:57.116Z,99
2023-01-29T01:21:00.761Z,99
2023-01-29T01:31:01.482Z,99
2023-01-29T01:41:02.495Z,99
2023-01-29T02:41:06.189Z,99
2023-01-29T03:01:07.787Z,99
2023-01-29T03:11:07.857Z,99
2023-01-29T03:21:08.568Z,99
2023-01-29T04:21:13.210Z,98
2023-01-29T05:31:17.862Z,98
2023-01-29T06:01:19.310Z,98
2023-01-29T07:11:22.698Z,98
2023-01-29T07:21:23.262Z,98
2023-01-29T07:51:25.610Z,98
2023-01-29T08:01:26.103Z,98
2023-01-29T08:11:26.324Z,97
2023-01-29T08:31:28.367Z,97
2023-01-29T08:41:29.310Z,97
2023-01-29T09:31:33.142Z,95
2023-01-29T09:41:33.165Z,95
2023-01-29T09:51:33.439Z,95
2023-01-29T10:11:34.842Z,94
2023-01-29T10:31:35.761Z,94
2023-01-29T10:41:35.931Z,93
2023-01-29T10:51:36.941Z,93
2023-01-29T11:01:37.991Z,93
2023-01-29T11:11:38.919Z,92
2023-01-29T11:21:39.736Z,91
2023-01-29T11:41:41.225Z,91
2023-01-29T11:51:41.898Z,91
2023-01-29T12:01:42.272Z,90
2023-01-29T12:11:42.495Z,90
2023-01-29T12:21:43.182Z,90
2023-01-29T12:51:44.401Z,89
2023-01-29T13:11:45.598Z,89
2023-01-29T13:41:47.325Z,89
2023-01-29T13:51:48.185Z,89
2023-01-29T14:21:50.839Z,89
2023-01-29T14:31:51.597Z,89
2023-01-29T14:41:51.685Z,89
2023-01-29T15:41:56.220Z,91
2023-01-29T15:51:56.414Z,91
2023-01-29T16:01:57.618Z,91
2023-01-29T16:11:58.026Z,91
2023-01-29T16:21:59.010Z,91
2023-01-29T16:31:59.573Z,91
2023-01-29T16:42:00.537Z,91
2023-01-29T16:52:01.596Z,91
2023-01-29T17:02:02.209Z,91
2023-01-29T17:12:03.019Z,91
2023-01-29T17:22:03.297Z,91
2023-01-29T17:32:04.333Z,91
2023-01-29T17:42:04.980Z,91
2023-01-29T17:52:05.256Z,91
2023-01-29T18:02:06.126Z,91
2023-01-29T18:12:06.459Z,91
2023-01-29T18:22:07.215Z,91
2023-01-29T18:32:07.972Z,92
2023-01-29T19:02:09.821Z,96
2023-01-29T19:12:10.513Z,97
2023-01-29T19:22:10.910Z,98
2023-01-29T19:32:11.642Z,97
2023-01-29T19:52:13.438Z,95
2023-01-29T20:02:14.649Z,94
2023-01-29T20:12:14.744Z,94
2023-01-29T20:22:14.868Z,93
2023-01-29T20:32:15.233Z,93
2023-01-29T20:42:16.184Z,93
2023-01-29T21:02:17.054Z,94
2023-01-29T21:12:17.100Z,94
2023-01-29T21:22:18.196Z,95
2023-01-29T21:32:18.252Z,96
2023-01-29T21:42:18.687Z,96
2023-01-29T21:52:19.329Z,96
2023-01-29T22:02:19.748Z,97
2023-01-29T22:12:20.437Z,97
2023-01-29T22:22:20.759Z,97
2023-01-29T22:52:22.002Z,98
2023-01-29T23:02:22.322Z,98
2023-01-29T23:12:22.469Z,98
2023-01-29T23:22:23.492Z,99
2023-01-29T23:32:23.623Z,99
2023-01-29T23:42:24.676Z,99
